Dike, Texas
Current Conditions -  °F | °C
As of 5:35 AM on Friday 24 Oct 2014 (Local Time) from KSLR Reporting Station
Clear Clear  
Wind Chill: 13°   Ceiling: Unl
Heat Index: 13°   Visibility: 10mi
Dew Point: 11°   Wind: 0mph
Humidity: 91%   Direction: NA
Pressure: 30.16"   Gusts: NA
Location:  33.24°N, 95.48°W
Report Text: KSLR 241035Z AUTO 00000KT 10SM CLR 13/11 A3016 RMK AO2 T01280113
Loading
Personal Weather Stations






























Interactive Weather Map
Tropical Storm Tracking
New forecast layout! Learn more

10-Day Weather Forecast

Advertisements
Track Severe Weather on mobile